sensor_id;sensor_type;location;lat;lon;timestamp;P1;durP1;ratioP1;P2;durP2;ratioP2
3941;SDS011;1985;48.592;8.850;2023-04-22T00:00:56;9.02;;;1.90;;
3941;SDS011;1985;48.592;8.850;2023-04-22T00:03:22;9.95;;;2.33;;
3941;SDS011;1985;48.592;8.850;2023-04-22T00:05:48;9.25;;;2.22;;
3941;SDS011;1985;48.592;8.850;2023-04-22T00:08:14;9.20;;;1.98;;
3941;SDS011;1985;48.592;8.850;2023-04-22T00:10:40;10.37;;;2.07;;
3941;SDS011;1985;48.592;8.850;2023-04-22T00:13:05;8.97;;;2.10;;
3941;SDS011;1985;48.592;8.850;2023-04-22T00:15:31;8.80;;;2.00;;
3941;SDS011;1985;48.592;8.850;2023-04-22T00:17:57;10.57;;;2.30;;
3941;SDS011;1985;48.592;8.850;2023-04-22T00:20:23;8.70;;;2.00;;
3941;SDS011;1985;48.592;8.850;2023-04-22T00:22:49;9.32;;;1.75;;
3941;SDS011;1985;48.592;8.850;2023-04-22T00:25:15;9.15;;;2.00;;
3941;SDS011;1985;48.592;8.850;2023-04-22T00:27:41;8.95;;;2.10;;
3941;SDS011;1985;48.592;8.850;2023-04-22T00:30:07;9.93;;;2.20;;
3941;SDS011;1985;48.592;8.850;2023-04-22T00:32:33;10.52;;;1.92;;
3941;SDS011;1985;48.592;8.850;2023-04-22T00:34:59;8.90;;;1.80;;
3941;SDS011;1985;48.592;8.850;2023-04-22T00:37:25;8.70;;;2.03;;
3941;SDS011;1985;48.592;8.850;2023-04-22T00:39:50;9.70;;;2.27;;
3941;SDS011;1985;48.592;8.850;2023-04-22T00:42:16;10.10;;;2.10;;
3941;SDS011;1985;48.592;8.850;2023-04-22T00:44:42;10.30;;;2.50;;
3941;SDS011;1985;48.592;8.850;2023-04-22T00:47:10;8.80;;;1.98;;
3941;SDS011;1985;48.592;8.850;2023-04-22T00:49:36;10.80;;;2.20;;
3941;SDS011;1985;48.592;8.850;2023-04-22T00:52:03;9.30;;;1.77;;
3941;SDS011;1985;48.592;8.850;2023-04-22T00:54:28;8.90;;;1.90;;
3941;SDS011;1985;48.592;8.850;2023-04-22T00:56:55;9.52;;;2.13;;
3941;SDS011;1985;48.592;8.850;2023-04-22T00:59:22;9.70;;;2.20;;
3941;SDS011;1985;48.592;8.850;2023-04-22T01:01:49;8.60;;;2.00;;
3941;SDS011;1985;48.592;8.850;2023-04-22T01:04:15;8.50;;;1.80;;
3941;SDS011;1985;48.592;8.850;2023-04-22T01:06:42;9.10;;;1.80;;
3941;SDS011;1985;48.592;8.850;2023-04-22T01:09:08;9.20;;;2.05;;
3941;SDS011;1985;48.592;8.850;2023-04-22T01:11:34;8.75;;;1.80;;
3941;SDS011;1985;48.592;8.850;2023-04-22T01:14:01;10.65;;;2.25;;
3941;SDS011;1985;48.592;8.850;2023-04-22T01:16:28;9.15;;;2.00;;
3941;SDS011;1985;48.592;8.850;2023-04-22T01:18:55;8.77;;;2.00;;
3941;SDS011;1985;48.592;8.850;2023-04-22T01:21:21;8.63;;;1.90;;
3941;SDS011;1985;48.592;8.850;2023-04-22T01:23:46;9.15;;;2.28;;
3941;SDS011;1985;48.592;8.850;2023-04-22T01:26:12;9.40;;;1.83;;
3941;SDS011;1985;48.592;8.850;2023-04-22T01:28:38;10.00;;;2.20;;
3941;SDS011;1985;48.592;8.850;2023-04-22T01:31:04;8.63;;;2.00;;
3941;SDS011;1985;48.592;8.850;2023-04-22T01:33:30;10.27;;;1.95;;
3941;SDS011;1985;48.592;8.850;2023-04-22T01:35:55;10.73;;;2.00;;
3941;SDS011;1985;48.592;8.850;2023-04-22T01:38:21;8.70;;;2.07;;
3941;SDS011;1985;48.592;8.850;2023-04-22T01:40:47;9.50;;;2.13;;
3941;SDS011;1985;48.592;8.850;2023-04-22T01:43:13;8.80;;;2.10;;
3941;SDS011;1985;48.592;8.850;2023-04-22T01:45:39;9.70;;;2.37;;
3941;SDS011;1985;48.592;8.850;2023-04-22T01:48:04;9.20;;;2.22;;
3941;SDS011;1985;48.592;8.850;2023-04-22T01:50:35;10.70;;;2.50;;
3941;SDS011;1985;48.592;8.850;2023-04-22T01:53:01;9.50;;;2.20;;
3941;SDS011;1985;48.592;8.850;2023-04-22T01:55:27;10.13;;;2.55;;
3941;SDS011;1985;48.592;8.850;2023-04-22T01:57:52;8.75;;;2.00;;
3941;SDS011;1985;48.592;8.850;2023-04-22T02:00:18;10.87;;;2.70;;
3941;SDS011;1985;48.592;8.850;2023-04-22T02:02:44;9.67;;;2.63;;
3941;SDS011;1985;48.592;8.850;2023-04-22T02:05:09;10.27;;;2.70;;
3941;SDS011;1985;48.592;8.850;2023-04-22T02:07:35;8.93;;;2.00;;
3941;SDS011;1985;48.592;8.850;2023-04-22T02:10:02;9.45;;;2.28;;
3941;SDS011;1985;48.592;8.850;2023-04-22T02:12:29;9.10;;;2.40;;
3941;SDS011;1985;48.592;8.850;2023-04-22T02:14:55;11.40;;;2.58;;
3941;SDS011;1985;48.592;8.850;2023-04-22T02:17:21;9.30;;;2.60;;
3941;SDS011;1985;48.592;8.850;2023-04-22T02:19:46;8.77;;;2.20;;
3941;SDS011;1985;48.592;8.850;2023-04-22T02:22:12;9.73;;;2.35;;
3941;SDS011;1985;48.592;8.850;2023-04-22T02:24:37;9.70;;;2.33;;
3941;SDS011;1985;48.592;8.850;2023-04-22T02:27:03;9.43;;;2.13;;
3941;SDS011;1985;48.592;8.850;2023-04-22T02:29:29;10.47;;;2.57;;
3941;SDS011;1985;48.592;8.850;2023-04-22T02:31:56;10.70;;;2.35;;
3941;SDS011;1985;48.592;8.850;2023-04-22T02:34:23;10.52;;;2.15;;
3941;SDS011;1985;48.592;8.850;2023-04-22T02:36:48;9.07;;;2.20;;
3941;SDS011;1985;48.592;8.850;2023-04-22T02:39:14;9.50;;;2.30;;
3941;SDS011;1985;48.592;8.850;2023-04-22T02:41:40;10.83;;;2.37;;
3941;SDS011;1985;48.592;8.850;2023-04-22T02:44:05;9.45;;;2.38;;
3941;SDS011;1985;48.592;8.850;2023-04-22T02:46:31;9.30;;;2.30;;
3941;SDS011;1985;48.592;8.850;2023-04-22T02:48:58;10.57;;;2.87;;
3941;SDS011;1985;48.592;8.850;2023-04-22T02:51:23;10.50;;;2.72;;
3941;SDS011;1985;48.592;8.850;2023-04-22T02:53:49;10.83;;;2.77;;
3941;SDS011;1985;48.592;8.850;2023-04-22T02:56:14;9.40;;;2.40;;
3941;SDS011;1985;48.592;8.850;2023-04-22T02:58:40;9.90;;;2.00;;
3941;SDS011;1985;48.592;8.850;2023-04-22T03:01:06;9.77;;;2.10;;
3941;SDS011;1985;48.592;8.850;2023-04-22T03:03:31;9.63;;;2.15;;
3941;SDS011;1985;48.592;8.850;2023-04-22T03:05:57;9.23;;;2.10;;
3941;SDS011;1985;48.592;8.850;2023-04-22T03:08:23;9.52;;;2.30;;
3941;SDS011;1985;48.592;8.850;2023-04-22T03:10:49;9.57;;;2.45;;
3941;SDS011;1985;48.592;8.850;2023-04-22T03:13:15;9.02;;;2.53;;
3941;SDS011;1985;48.592;8.850;2023-04-22T03:15:41;9.20;;;2.20;;
3941;SDS011;1985;48.592;8.850;2023-04-22T03:18:06;14.00;;;2.40;;
3941;SDS011;1985;48.592;8.850;2023-04-22T03:20:33;9.15;;;2.40;;
3941;SDS011;1985;48.592;8.850;2023-04-22T03:22:59;11.05;;;2.55;;
3941;SDS011;1985;48.592;8.850;2023-04-22T03:25:25;9.45;;;3.00;;
3941;SDS011;1985;48.592;8.850;2023-04-22T03:27:50;9.70;;;2.50;;
3941;SDS011;1985;48.592;8.850;2023-04-22T03:30:16;11.00;;;2.80;;
3941;SDS011;1985;48.592;8.850;2023-04-22T03:32:42;10.55;;;2.60;;
3941;SDS011;1985;48.592;8.850;2023-04-22T03:35:07;10.27;;;3.10;;
3941;SDS011;1985;48.592;8.850;2023-04-22T03:37:33;9.18;;;2.30;;
3941;SDS011;1985;48.592;8.850;2023-04-22T03:39:59;11.30;;;3.17;;
3941;SDS011;1985;48.592;8.850;2023-04-22T03:42:24;11.00;;;2.80;;
3941;SDS011;1985;48.592;8.850;2023-04-22T03:44:50;12.13;;;3.20;;
3941;SDS011;1985;48.592;8.850;2023-04-22T03:47:16;10.55;;;2.85;;
3941;SDS011;1985;48.592;8.850;2023-04-22T03:49:41;9.67;;;2.60;;
3941;SDS011;1985;48.592;8.850;2023-04-22T03:52:07;9.90;;;2.70;;
3941;SDS011;1985;48.592;8.850;2023-04-22T03:54:32;9.98;;;2.90;;
3941;SDS011;1985;48.592;8.850;2023-04-22T03:56:58;10.70;;;2.50;;
3941;SDS011;1985;48.592;8.850;2023-04-22T03:59:24;9.70;;;2.53;;
3941;SDS011;1985;48.592;8.850;2023-04-22T04:01:50;9.77;;;2.30;;
3941;SDS011;1985;48.592;8.850;2023-04-22T04:04:17;10.98;;;2.97;;
3941;SDS011;1985;48.592;8.850;2023-04-22T04:06:43;10.00;;;2.87;;
3941;SDS011;1985;48.592;8.850;2023-04-22T04:09:08;11.85;;;3.42;;
3941;SDS011;1985;48.592;8.850;2023-04-22T04:11:36;11.47;;;3.20;;
3941;SDS011;1985;48.592;8.850;2023-04-22T04:14:01;11.85;;;2.90;;
3941;SDS011;1985;48.592;8.850;2023-04-22T04:16:27;10.53;;;2.87;;
3941;SDS011;1985;48.592;8.850;2023-04-22T04:18:53;9.48;;;2.80;;
3941;SDS011;1985;48.592;8.850;2023-04-22T04:21:18;10.80;;;2.53;;
3941;SDS011;1985;48.592;8.850;2023-04-22T04:23:44;10.30;;;3.00;;
3941;SDS011;1985;48.592;8.850;2023-04-22T04:26:10;10.90;;;3.30;;
3941;SDS011;1985;48.592;8.850;2023-04-22T04:28:36;12.18;;;2.60;;
3941;SDS011;1985;48.592;8.850;2023-04-22T04:31:02;10.40;;;3.03;;
3941;SDS011;1985;48.592;8.850;2023-04-22T04:33:28;10.70;;;3.30;;
3941;SDS011;1985;48.592;8.850;2023-04-22T04:35:56;9.82;;;3.13;;
3941;SDS011;1985;48.592;8.850;2023-04-22T04:38:22;11.00;;;3.00;;
3941;SDS011;1985;48.592;8.850;2023-04-22T04:40:49;10.30;;;3.10;;
3941;SDS011;1985;48.592;8.850;2023-04-22T04:43:15;10.38;;;2.78;;
3941;SDS011;1985;48.592;8.850;2023-04-22T04:45:40;10.55;;;3.10;;
3941;SDS011;1985;48.592;8.850;2023-04-22T04:48:11;10.05;;;2.55;;
3941;SDS011;1985;48.592;8.850;2023-04-22T04:50:37;10.43;;;3.03;;
3941;SDS011;1985;48.592;8.850;2023-04-22T04:53:03;10.97;;;3.33;;
3941;SDS011;1985;48.592;8.850;2023-04-22T04:55:28;10.75;;;2.92;;
3941;SDS011;1985;48.592;8.850;2023-04-22T04:57:54;10.60;;;2.70;;
3941;SDS011;1985;48.592;8.850;2023-04-22T05:00:19;10.75;;;3.15;;
3941;SDS011;1985;48.592;8.850;2023-04-22T05:02:45;11.17;;;3.73;;
3941;SDS011;1985;48.592;8.850;2023-04-22T05:05:11;13.13;;;3.70;;
3941;SDS011;1985;48.592;8.850;2023-04-22T05:07:36;11.63;;;3.27;;
3941;SDS011;1985;48.592;8.850;2023-04-22T05:10:02;13.10;;;3.30;;
3941;SDS011;1985;48.592;8.850;2023-04-22T05:12:28;11.35;;;3.30;;
3941;SDS011;1985;48.592;8.850;2023-04-22T05:14:54;14.87;;;3.40;;
3941;SDS011;1985;48.592;8.850;2023-04-22T05:17:19;11.05;;;3.50;;
3941;SDS011;1985;48.592;8.850;2023-04-22T05:19:45;9.80;;;3.00;;
3941;SDS011;1985;48.592;8.850;2023-04-22T05:22:11;13.17;;;3.50;;
3941;SDS011;1985;48.592;8.850;2023-04-22T05:24:36;11.20;;;3.40;;
3941;SDS011;1985;48.592;8.850;2023-04-22T05:27:02;12.98;;;3.50;;
3941;SDS011;1985;48.592;8.850;2023-04-22T05:29:28;14.23;;;3.50;;
3941;SDS011;1985;48.592;8.850;2023-04-22T05:31:54;11.90;;;3.03;;
3941;SDS011;1985;48.592;8.850;2023-04-22T05:34:19;10.53;;;2.90;;
3941;SDS011;1985;48.592;8.850;2023-04-22T05:36:45;10.50;;;3.40;;
3941;SDS011;1985;48.592;8.850;2023-04-22T05:39:11;11.13;;;3.33;;
3941;SDS011;1985;48.592;8.850;2023-04-22T05:41:37;12.40;;;3.90;;
3941;SDS011;1985;48.592;8.850;2023-04-22T05:44:02;11.82;;;3.50;;
3941;SDS011;1985;48.592;8.850;2023-04-22T05:46:28;12.33;;;3.50;;
3941;SDS011;1985;48.592;8.850;2023-04-22T05:48:53;11.23;;;2.80;;
3941;SDS011;1985;48.592;8.850;2023-04-22T05:51:22;12.30;;;3.05;;
3941;SDS011;1985;48.592;8.850;2023-04-22T05:53:48;10.65;;;3.30;;
3941;SDS011;1985;48.592;8.850;2023-04-22T05:56:14;11.18;;;3.45;;
3941;SDS011;1985;48.592;8.850;2023-04-22T05:58:40;10.70;;;2.97;;
3941;SDS011;1985;48.592;8.850;2023-04-22T06:01:06;11.53;;;3.27;;
3941;SDS011;1985;48.592;8.850;2023-04-22T06:03:32;9.63;;;3.00;;
3941;SDS011;1985;48.592;8.850;2023-04-22T06:05:58;10.43;;;2.90;;
3941;SDS011;1985;48.592;8.850;2023-04-22T06:08:24;12.90;;;3.50;;
3941;SDS011;1985;48.592;8.850;2023-04-22T06:10:51;11.40;;;3.70;;
3941;SDS011;1985;48.592;8.850;2023-04-22T06:13:16;11.80;;;3.17;;
3941;SDS011;1985;48.592;8.850;2023-04-22T06:15:42;11.70;;;3.50;;
3941;SDS011;1985;48.592;8.850;2023-04-22T06:18:07;11.40;;;3.67;;
3941;SDS011;1985;48.592;8.850;2023-04-22T06:20:33;11.13;;;3.67;;
3941;SDS011;1985;48.592;8.850;2023-04-22T06:23:00;11.90;;;4.07;;
3941;SDS011;1985;48.592;8.850;2023-04-22T06:25:29;12.25;;;3.83;;
3941;SDS011;1985;48.592;8.850;2023-04-22T06:27:55;12.43;;;3.80;;
3941;SDS011;1985;48.592;8.850;2023-04-22T06:30:21;10.98;;;3.42;;
3941;SDS011;1985;48.592;8.850;2023-04-22T06:32:46;9.80;;;3.40;;
3941;SDS011;1985;48.592;8.850;2023-04-22T06:35:12;11.70;;;3.90;;
3941;SDS011;1985;48.592;8.850;2023-04-22T06:37:38;15.00;;;4.00;;
3941;SDS011;1985;48.592;8.850;2023-04-22T06:40:04;12.90;;;4.20;;
3941;SDS011;1985;48.592;8.850;2023-04-22T06:42:30;12.32;;;3.95;;
3941;SDS011;1985;48.592;8.850;2023-04-22T06:44:55;14.00;;;4.27;;
3941;SDS011;1985;48.592;8.850;2023-04-22T06:47:21;12.02;;;3.80;;
3941;SDS011;1985;48.592;8.850;2023-04-22T06:49:47;13.77;;;3.80;;
3941;SDS011;1985;48.592;8.850;2023-04-22T06:52:14;14.52;;;3.70;;
3941;SDS011;1985;48.592;8.850;2023-04-22T06:54:40;13.90;;;3.80;;
3941;SDS011;1985;48.592;8.850;2023-04-22T06:57:05;11.40;;;3.50;;
3941;SDS011;1985;48.592;8.850;2023-04-22T06:59:32;11.32;;;3.47;;
3941;SDS011;1985;48.592;8.850;2023-04-22T07:01:57;12.32;;;4.13;;
3941;SDS011;1985;48.592;8.850;2023-04-22T07:04:23;12.30;;;3.90;;
3941;SDS011;1985;48.592;8.850;2023-04-22T07:06:51;12.02;;;3.90;;
3941;SDS011;1985;48.592;8.850;2023-04-22T07:09:17;11.23;;;3.95;;
3941;SDS011;1985;48.592;8.850;2023-04-22T07:11:43;15.48;;;4.10;;
3941;SDS011;1985;48.592;8.850;2023-04-22T07:14:08;13.97;;;3.90;;
3941;SDS011;1985;48.592;8.850;2023-04-22T07:16:34;11.98;;;3.95;;
3941;SDS011;1985;48.592;8.850;2023-04-22T07:19:00;11.90;;;4.23;;
3941;SDS011;1985;48.592;8.850;2023-04-22T07:21:28;12.20;;;3.97;;
3941;SDS011;1985;48.592;8.850;2023-04-22T07:23:53;13.40;;;3.90;;
3941;SDS011;1985;48.592;8.850;2023-04-22T07:26:19;11.00;;;3.30;;
3941;SDS011;1985;48.592;8.850;2023-04-22T07:28:45;10.90;;;3.67;;
3941;SDS011;1985;48.592;8.850;2023-04-22T07:31:10;12.90;;;4.30;;
3941;SDS011;1985;48.592;8.850;2023-04-22T07:33:36;14.67;;;4.30;;
3941;SDS011;1985;48.592;8.850;2023-04-22T07:36:02;11.10;;;4.53;;
3941;SDS011;1985;48.592;8.850;2023-04-22T07:38:27;11.52;;;4.35;;
3941;SDS011;1985;48.592;8.850;2023-04-22T07:40:53;13.30;;;4.28;;
3941;SDS011;1985;48.592;8.850;2023-04-22T07:43:19;12.90;;;4.43;;
3941;SDS011;1985;48.592;8.850;2023-04-22T07:45:44;11.07;;;4.10;;
3941;SDS011;1985;48.592;8.850;2023-04-22T07:48:10;15.10;;;4.60;;
3941;SDS011;1985;48.592;8.850;2023-04-22T07:50:35;12.40;;;4.20;;
3941;SDS011;1985;48.592;8.850;2023-04-22T07:53:01;12.57;;;4.90;;
3941;SDS011;1985;48.592;8.850;2023-04-22T07:55:27;13.75;;;4.80;;
3941;SDS011;1985;48.592;8.850;2023-04-22T07:57:52;12.00;;;4.30;;
3941;SDS011;1985;48.592;8.850;2023-04-22T08:00:18;11.63;;;4.10;;
3941;SDS011;1985;48.592;8.850;2023-04-22T08:02:43;10.63;;;3.70;;
3941;SDS011;1985;48.592;8.850;2023-04-22T08:05:10;12.57;;;4.30;;
3941;SDS011;1985;48.592;8.850;2023-04-22T08:07:36;12.50;;;4.47;;
3941;SDS011;1985;48.592;8.850;2023-04-22T08:10:02;13.00;;;4.13;;
3941;SDS011;1985;48.592;8.850;2023-04-22T08:12:28;12.60;;;4.10;;
3941;SDS011;1985;48.592;8.850;2023-04-22T08:14:53;14.30;;;4.75;;
3941;SDS011;1985;48.592;8.850;2023-04-22T08:17:19;13.43;;;4.90;;
3941;SDS011;1985;48.592;8.850;2023-04-22T08:19:46;18.00;;;5.22;;
3941;SDS011;1985;48.592;8.850;2023-04-22T08:22:12;13.90;;;4.90;;
3941;SDS011;1985;48.592;8.850;2023-04-22T08:24:39;13.50;;;4.10;;
3941;SDS011;1985;48.592;8.850;2023-04-22T08:27:04;11.35;;;4.07;;
3941;SDS011;1985;48.592;8.850;2023-04-22T08:29:30;14.27;;;4.47;;
3941;SDS011;1985;48.592;8.850;2023-04-22T08:31:56;12.48;;;4.32;;
3941;SDS011;1985;48.592;8.850;2023-04-22T08:34:22;11.73;;;3.60;;
3941;SDS011;1985;48.592;8.850;2023-04-22T08:36:48;10.93;;;3.20;;
3941;SDS011;1985;48.592;8.850;2023-04-22T08:39:14;11.00;;;3.20;;
3941;SDS011;1985;48.592;8.850;2023-04-22T08:41:41;9.35;;;2.67;;
3941;SDS011;1985;48.592;8.850;2023-04-22T08:44:08;12.38;;;3.03;;
3941;SDS011;1985;48.592;8.850;2023-04-22T08:46:35;10.48;;;2.90;;
3941;SDS011;1985;48.592;8.850;2023-04-22T08:49:01;10.40;;;2.60;;
3941;SDS011;1985;48.592;8.850;2023-04-22T08:51:28;10.25;;;2.80;;
3941;SDS011;1985;48.592;8.850;2023-04-22T08:53:56;9.20;;;2.50;;
3941;SDS011;1985;48.592;8.850;2023-04-22T08:56:21;9.97;;;2.57;;
3941;SDS011;1985;48.592;8.850;2023-04-22T08:58:49;10.45;;;2.60;;
3941;SDS011;1985;48.592;8.850;2023-04-22T09:01:15;11.73;;;2.90;;
3941;SDS011;1985;48.592;8.850;2023-04-22T09:03:42;9.85;;;2.92;;
3941;SDS011;1985;48.592;8.850;2023-04-22T09:06:09;12.63;;;3.13;;
3941;SDS011;1985;48.592;8.850;2023-04-22T09:08:37;14.63;;;4.03;;
3941;SDS011;1985;48.592;8.850;2023-04-22T09:11:02;10.23;;;3.28;;
3941;SDS011;1985;48.592;8.850;2023-04-22T09:13:28;9.70;;;2.70;;
3941;SDS011;1985;48.592;8.850;2023-04-22T09:15:54;11.10;;;2.80;;
3941;SDS011;1985;48.592;8.850;2023-04-22T09:18:20;10.37;;;2.90;;
3941;SDS011;1985;48.592;8.850;2023-04-22T09:20:48;9.70;;;2.30;;
3941;SDS011;1985;48.592;8.850;2023-04-22T09:23:19;10.35;;;2.72;;
3941;SDS011;1985;48.592;8.850;2023-04-22T09:25:45;10.23;;;2.80;;
3941;SDS011;1985;48.592;8.850;2023-04-22T09:28:12;9.88;;;2.45;;
3941;SDS011;1985;48.592;8.850;2023-04-22T09:30:43;10.05;;;2.45;;
3941;SDS011;1985;48.592;8.850;2023-04-22T09:33:10;9.60;;;2.20;;
3941;SDS011;1985;48.592;8.850;2023-04-22T09:35:40;16.35;;;2.20;;
3941;SDS011;1985;48.592;8.850;2023-04-22T09:38:08;9.50;;;2.20;;
3941;SDS011;1985;48.592;8.850;2023-04-22T09:40:35;10.75;;;2.60;;
3941;SDS011;1985;48.592;8.850;2023-04-22T09:43:05;9.05;;;2.08;;
3941;SDS011;1985;48.592;8.850;2023-04-22T09:45:38;9.98;;;2.33;;
3941;SDS011;1985;48.592;8.850;2023-04-22T09:48:06;12.10;;;2.30;;
3941;SDS011;1985;48.592;8.850;2023-04-22T09:50:41;9.43;;;2.30;;
3941;SDS011;1985;48.592;8.850;2023-04-22T09:53:09;10.95;;;2.00;;
3941;SDS011;1985;48.592;8.850;2023-04-22T09:55:37;9.53;;;2.23;;
3941;SDS011;1985;48.592;8.850;2023-04-22T09:58:11;12.38;;;2.70;;
3941;SDS011;1985;48.592;8.850;2023-04-22T10:00:43;9.20;;;2.20;;
3941;SDS011;1985;48.592;8.850;2023-04-22T10:03:13;12.10;;;2.85;;
3941;SDS011;1985;48.592;8.850;2023-04-22T10:05:41;10.50;;;2.50;;
3941;SDS011;1985;48.592;8.850;2023-04-22T10:08:09;9.48;;;2.10;;
3941;SDS011;1985;48.592;8.850;2023-04-22T10:10:36;9.10;;;2.10;;
3941;SDS011;1985;48.592;8.850;2023-04-22T10:13:02;9.70;;;2.20;;
3941;SDS011;1985;48.592;8.850;2023-04-22T10:15:32;9.60;;;1.80;;
3941;SDS011;1985;48.592;8.850;2023-04-22T10:18:00;11.40;;;2.20;;
3941;SDS011;1985;48.592;8.850;2023-04-22T10:20:28;9.80;;;2.03;;
3941;SDS011;1985;48.592;8.850;2023-04-22T10:22:59;8.75;;;2.20;;
3941;SDS011;1985;48.592;8.850;2023-04-22T10:25:28;10.80;;;2.00;;
3941;SDS011;1985;48.592;8.850;2023-04-22T10:30:28;9.30;;;1.77;;
3941;SDS011;1985;48.592;8.850;2023-04-22T10:32:55;9.52;;;2.10;;
3941;SDS011;1985;48.592;8.850;2023-04-22T10:38:34;10.00;;;1.90;;
3941;SDS011;1985;48.592;8.850;2023-04-22T10:41:30;8.60;;;1.83;;
3941;SDS011;1985;48.592;8.850;2023-04-22T10:44:08;8.50;;;1.80;;
3941;SDS011;1985;48.592;8.850;2023-04-22T10:49:10;8.52;;;1.90;;
3941;SDS011;1985;48.592;8.850;2023-04-22T10:51:40;8.57;;;1.60;;
3941;SDS011;1985;48.592;8.850;2023-04-22T10:54:06;8.50;;;1.70;;
3941;SDS011;1985;48.592;8.850;2023-04-22T10:57:02;8.40;;;1.70;;
3941;SDS011;1985;48.592;8.850;2023-04-22T10:59:57;10.50;;;1.83;;
3941;SDS011;1985;48.592;8.850;2023-04-22T11:02:22;8.30;;;1.60;;
3941;SDS011;1985;48.592;8.850;2023-04-22T11:04:48;13.00;;;2.00;;
3941;SDS011;1985;48.592;8.850;2023-04-22T11:15:05;8.90;;;1.88;;
3941;SDS011;1985;48.592;8.850;2023-04-22T11:17:42;10.13;;;1.70;;
3941;SDS011;1985;48.592;8.850;2023-04-22T11:20:09;9.80;;;1.98;;
3941;SDS011;1985;48.592;8.850;2023-04-22T11:22:37;8.57;;;1.50;;
3941;SDS011;1985;48.592;8.850;2023-04-22T11:25:06;9.50;;;1.48;;
3941;SDS011;1985;48.592;8.850;2023-04-22T11:27:34;9.15;;;1.98;;
3941;SDS011;1985;48.592;8.850;2023-04-22T11:30:05;10.35;;;1.70;;
3941;SDS011;1985;48.592;8.850;2023-04-22T11:32:34;8.18;;;1.70;;
3941;SDS011;1985;48.592;8.850;2023-04-22T11:35:04;11.45;;;2.40;;
3941;SDS011;1985;48.592;8.850;2023-04-22T11:40:29;9.30;;;1.65;;
3941;SDS011;1985;48.592;8.850;2023-04-22T11:43:03;14.23;;;1.70;;
3941;SDS011;1985;48.592;8.850;2023-04-22T11:45:32;10.05;;;1.52;;
3941;SDS011;1985;48.592;8.850;2023-04-22T11:48:00;8.70;;;1.60;;
3941;SDS011;1985;48.592;8.850;2023-04-22T11:50:27;8.80;;;1.70;;
3941;SDS011;1985;48.592;8.850;2023-04-22T11:55:49;8.80;;;1.60;;
3941;SDS011;1985;48.592;8.850;2023-04-22T11:58:19;8.60;;;1.70;;
3941;SDS011;1985;48.592;8.850;2023-04-22T12:00:49;9.75;;;1.67;;
3941;SDS011;1985;48.592;8.850;2023-04-22T12:03:17;9.30;;;1.70;;
3941;SDS011;1985;48.592;8.850;2023-04-22T12:05:45;10.80;;;1.60;;
3941;SDS011;1985;48.592;8.850;2023-04-22T12:08:14;10.73;;;1.60;;
3941;SDS011;1985;48.592;8.850;2023-04-22T12:10:46;10.13;;;1.73;;
3941;SDS011;1985;48.592;8.850;2023-04-22T12:13:26;8.25;;;1.60;;
3941;SDS011;1985;48.592;8.850;2023-04-22T12:15:58;11.60;;;1.80;;
3941;SDS011;1985;48.592;8.850;2023-04-22T12:23:25;10.95;;;1.90;;
3941;SDS011;1985;48.592;8.850;2023-04-22T12:25:52;8.60;;;1.80;;
3941;SDS011;1985;48.592;8.850;2023-04-22T12:28:17;10.43;;;1.83;;
3941;SDS011;1985;48.592;8.850;2023-04-22T12:30:43;9.55;;;1.80;;
3941;SDS011;1985;48.592;8.850;2023-04-22T12:33:09;9.30;;;1.80;;
3941;SDS011;1985;48.592;8.850;2023-04-22T12:35:34;8.30;;;1.58;;
3941;SDS011;1985;48.592;8.850;2023-04-22T12:38:00;10.40;;;1.70;;
3941;SDS011;1985;48.592;8.850;2023-04-22T12:40:26;11.20;;;2.00;;
3941;SDS011;1985;48.592;8.850;2023-04-22T12:42:51;10.00;;;1.50;;
3941;SDS011;1985;48.592;8.850;2023-04-22T12:45:17;8.90;;;1.67;;
3941;SDS011;1985;48.592;8.850;2023-04-22T12:47:43;9.90;;;1.80;;
3941;SDS011;1985;48.592;8.850;2023-04-22T12:50:09;9.27;;;1.60;;
3941;SDS011;1985;48.592;8.850;2023-04-22T12:52:35;9.60;;;1.58;;
3941;SDS011;1985;48.592;8.850;2023-04-22T12:55:01;12.00;;;2.00;;
3941;SDS011;1985;48.592;8.850;2023-04-22T12:57:26;8.67;;;1.43;;
3941;SDS011;1985;48.592;8.850;2023-04-22T12:59:52;9.20;;;1.70;;
3941;SDS011;1985;48.592;8.850;2023-04-22T13:02:18;10.48;;;1.60;;
3941;SDS011;1985;48.592;8.850;2023-04-22T13:04:44;11.50;;;1.80;;
3941;SDS011;1985;48.592;8.850;2023-04-22T13:07:09;10.60;;;1.70;;
3941;SDS011;1985;48.592;8.850;2023-04-22T13:09:35;10.80;;;1.80;;
3941;SDS011;1985;48.592;8.850;2023-04-22T13:12:01;9.65;;;1.60;;
3941;SDS011;1985;48.592;8.850;2023-04-22T13:14:27;10.05;;;1.77;;
3941;SDS011;1985;48.592;8.850;2023-04-22T13:16:52;11.67;;;1.63;;
3941;SDS011;1985;48.592;8.850;2023-04-22T13:19:18;8.50;;;1.30;;
3941;SDS011;1985;48.592;8.850;2023-04-22T13:21:44;9.60;;;1.50;;
3941;SDS011;1985;48.592;8.850;2023-04-22T13:24:09;9.20;;;1.70;;
3941;SDS011;1985;48.592;8.850;2023-04-22T13:26:35;8.43;;;1.53;;
3941;SDS011;1985;48.592;8.850;2023-04-22T13:29:02;9.77;;;1.95;;
3941;SDS011;1985;48.592;8.850;2023-04-22T13:31:30;10.93;;;1.85;;
3941;SDS011;1985;48.592;8.850;2023-04-22T13:33:56;8.60;;;1.90;;
3941;SDS011;1985;48.592;8.850;2023-04-22T13:36:21;9.20;;;1.60;;
3941;SDS011;1985;48.592;8.850;2023-04-22T13:38:47;8.43;;;1.80;;
3941;SDS011;1985;48.592;8.850;2023-04-22T13:41:13;10.40;;;1.90;;
3941;SDS011;1985;48.592;8.850;2023-04-22T13:43:38;9.67;;;1.90;;
3941;SDS011;1985;48.592;8.850;2023-04-22T13:46:04;9.30;;;1.70;;
3941;SDS011;1985;48.592;8.850;2023-04-22T13:48:30;22.50;;;1.95;;
3941;SDS011;1985;48.592;8.850;2023-04-22T13:50:56;8.82;;;1.70;;
3941;SDS011;1985;48.592;8.850;2023-04-22T13:53:21;9.10;;;1.70;;
3941;SDS011;1985;48.592;8.850;2023-04-22T13:55:47;8.70;;;1.70;;
3941;SDS011;1985;48.592;8.850;2023-04-22T13:58:13;9.30;;;1.83;;
3941;SDS011;1985;48.592;8.850;2023-04-22T14:00:38;9.40;;;2.30;;
3941;SDS011;1985;48.592;8.850;2023-04-22T14:03:04;9.50;;;1.92;;
3941;SDS011;1985;48.592;8.850;2023-04-22T14:05:30;10.80;;;2.00;;
3941;SDS011;1985;48.592;8.850;2023-04-22T14:07:56;11.20;;;2.08;;
3941;SDS011;1985;48.592;8.850;2023-04-22T14:10:23;9.02;;;1.92;;
3941;SDS011;1985;48.592;8.850;2023-04-22T14:12:49;9.60;;;1.80;;
3941;SDS011;1985;48.592;8.850;2023-04-22T14:15:14;9.10;;;2.10;;
3941;SDS011;1985;48.592;8.850;2023-04-22T14:17:40;10.00;;;2.28;;
3941;SDS011;1985;48.592;8.850;2023-04-22T14:20:06;9.70;;;2.10;;
3941;SDS011;1985;48.592;8.850;2023-04-22T14:22:32;9.55;;;2.20;;
3941;SDS011;1985;48.592;8.850;2023-04-22T14:24:58;11.90;;;2.40;;
3941;SDS011;1985;48.592;8.850;2023-04-22T14:27:24;9.30;;;2.13;;
3941;SDS011;1985;48.592;8.850;2023-04-22T14:29:50;9.20;;;2.20;;
3941;SDS011;1985;48.592;8.850;2023-04-22T14:32:17;9.50;;;1.95;;
3941;SDS011;1985;48.592;8.850;2023-04-22T14:34:44;10.82;;;2.17;;
3941;SDS011;1985;48.592;8.850;2023-04-22T14:37:10;10.52;;;2.30;;
3941;SDS011;1985;48.592;8.850;2023-04-22T14:39:36;9.20;;;1.98;;
3941;SDS011;1985;48.592;8.850;2023-04-22T14:42:02;9.80;;;2.00;;
3941;SDS011;1985;48.592;8.850;2023-04-22T14:44:28;10.98;;;2.20;;
3941;SDS011;1985;48.592;8.850;2023-04-22T14:46:54;11.27;;;2.10;;
3941;SDS011;1985;48.592;8.850;2023-04-22T14:49:19;10.20;;;2.05;;
3941;SDS011;1985;48.592;8.850;2023-04-22T14:51:45;12.02;;;1.90;;
3941;SDS011;1985;48.592;8.850;2023-04-22T14:54:11;9.70;;;2.03;;
3941;SDS011;1985;48.592;8.850;2023-04-22T14:56:37;9.38;;;1.90;;
3941;SDS011;1985;48.592;8.850;2023-04-22T14:59:02;10.00;;;2.00;;
3941;SDS011;1985;48.592;8.850;2023-04-22T15:01:28;9.02;;;1.73;;
3941;SDS011;1985;48.592;8.850;2023-04-22T15:03:55;9.60;;;1.80;;
3941;SDS011;1985;48.592;8.850;2023-04-22T15:06:21;9.90;;;1.77;;
3941;SDS011;1985;48.592;8.850;2023-04-22T15:08:46;10.35;;;2.10;;
3941;SDS011;1985;48.592;8.850;2023-04-22T15:11:12;9.13;;;1.90;;
3941;SDS011;1985;48.592;8.850;2023-04-22T15:13:37;10.43;;;1.73;;
3941;SDS011;1985;48.592;8.850;2023-04-22T15:16:03;9.65;;;2.10;;
3941;SDS011;1985;48.592;8.850;2023-04-22T15:18:29;9.45;;;1.83;;
3941;SDS011;1985;48.592;8.850;2023-04-22T15:20:55;11.10;;;2.10;;
3941;SDS011;1985;48.592;8.850;2023-04-22T15:23:20;11.50;;;2.83;;
3941;SDS011;1985;48.592;8.850;2023-04-22T15:25:46;11.10;;;2.70;;
3941;SDS011;1985;48.592;8.850;2023-04-22T15:28:12;9.20;;;1.83;;
3941;SDS011;1985;48.592;8.850;2023-04-22T15:30:38;9.68;;;2.00;;